createdAt,value
2022-11-25T00:00:13.024Z,26.80
2022-11-25T00:05:15.504Z,27.00
2022-11-25T00:10:17.517Z,26.90
2022-11-25T00:15:19.529Z,26.70
2022-11-25T00:20:22.342Z,26.60
2022-11-25T00:25:24.355Z,26.50
2022-11-25T00:30:26.427Z,26.60
2022-11-25T00:40:30.945Z,26.80
2022-11-25T00:45:32.998Z,27.10
2022-11-25T00:50:35.097Z,27.20
2022-11-25T00:55:57.107Z,27.20
2022-11-25T01:01:02.289Z,27.30
2022-11-25T01:06:07.323Z,27.10
2022-11-25T01:11:18.838Z,27.30
2022-11-25T01:16:21.726Z,27.30
2022-11-25T01:21:27.311Z,27.30
2022-11-25T01:26:30.601Z,27.70
2022-11-25T01:31:35.837Z,28.00
2022-11-25T01:36:38.423Z,28.60
2022-11-25T01:41:40.393Z,28.60
2022-11-25T01:47:09.366Z,29.30
2022-11-25T01:52:36.199Z,29.50
2022-11-25T01:57:47.277Z,29.70
2022-11-25T02:02:53.240Z,29.80
2022-11-25T02:07:58.078Z,29.90
2022-11-25T02:13:00.603Z,30.00
2022-11-25T02:18:02.634Z,29.80
2022-11-25T02:23:25.734Z,30.10
2022-11-25T02:28:31.177Z,30.20
2022-11-25T02:33:33.333Z,30.30
2022-11-25T02:38:47.658Z,30.30
2022-11-25T02:49:12.997Z,30.00
2022-11-25T02:54:16.252Z,30.10
2022-11-25T03:04:21.102Z,30.00
2022-11-25T03:09:23.146Z,30.20
2022-11-25T03:14:25.355Z,30.20
2022-11-25T03:19:27.582Z,30.20
2022-11-25T03:24:29.978Z,30.20
2022-11-25T03:29:32.086Z,30.40
2022-11-25T03:34:35.795Z,30.30
2022-11-25T03:39:38.636Z,30.30
2022-11-25T03:44:41.622Z,30.40
2022-11-25T03:49:44.146Z,30.50
2022-11-25T03:54:46.395Z,30.50
2022-11-25T03:59:48.950Z,30.40
2022-11-25T04:04:52.139Z,30.50
2022-11-25T04:14:57.524Z,30.50
2022-11-25T04:19:59.882Z,30.50
2022-11-25T04:25:04.447Z,30.60
2022-11-25T04:30:07.720Z,30.60
2022-11-25T04:35:10.533Z,30.50
2022-11-25T04:40:14.323Z,30.40
2022-11-25T04:45:23.428Z,30.20
2022-11-25T04:50:27.314Z,30.20
2022-11-25T04:55:30.819Z,30.20
2022-11-25T05:05:39.112Z,30.30
2022-11-25T05:15:44.301Z,30.50
2022-11-25T05:20:47.757Z,30.60
2022-11-25T05:30:55.253Z,30.70
2022-11-25T05:36:01.755Z,30.50
2022-11-25T05:41:07.712Z,30.60
2022-11-25T05:46:10.724Z,30.70
2022-11-25T05:51:14.166Z,30.80
2022-11-25T05:56:16.546Z,30.90
2022-11-25T06:01:24.305Z,31.00
2022-11-25T06:06:26.357Z,31.00
2022-11-25T06:11:29.215Z,31.10
2022-11-25T06:16:31.520Z,31.00
2022-11-25T06:21:36.273Z,31.00
2022-11-25T06:31:41.474Z,31.10
2022-11-25T06:36:52.277Z,31.00
2022-11-25T06:46:56.806Z,31.10
2022-11-25T06:51:58.869Z,31.20
2022-11-25T06:57:00.856Z,31.20
2022-11-25T07:02:03.427Z,31.20
2022-11-25T07:07:05.455Z,31.20
2022-11-25T07:12:07.658Z,32.00
2022-11-25T07:17:12.161Z,31.20
2022-11-25T07:22:14.620Z,31.40
2022-11-25T07:27:16.696Z,32.20
2022-11-25T07:32:18.778Z,31.60
2022-11-25T07:37:20.932Z,31.60
2022-11-25T07:42:22.942Z,31.70
2022-11-25T07:47:25.431Z,31.70
2022-11-25T07:52:27.588Z,32.50
2022-11-25T07:57:29.636Z,31.80
2022-11-25T08:02:31.746Z,31.70
2022-11-25T08:07:36.652Z,31.90
2022-11-25T08:17:41.620Z,31.90
2022-11-25T08:22:43.674Z,31.90
2022-11-25T08:27:45.716Z,32.00
2022-11-25T08:32:47.766Z,33.00
2022-11-25T08:37:49.909Z,32.30
2022-11-25T08:42:51.930Z,32.10
2022-11-25T08:47:54.038Z,32.00
2022-11-25T08:52:57.473Z,32.20
2022-11-25T08:58:00.052Z,32.30
2022-11-25T09:03:04.373Z,32.20
2022-11-25T09:08:08.321Z,32.60
2022-11-25T09:13:11.504Z,32.30
2022-11-25T09:18:15.332Z,32.20
2022-11-25T09:23:17.424Z,33.00
2022-11-25T09:28:21.051Z,33.10
2022-11-25T09:33:23.170Z,31.40
2022-11-25T09:38:25.225Z,31.30
2022-11-25T09:44:20.041Z,32.10
2022-11-25T09:50:00.838Z,31.30
2022-11-25T09:55:23.810Z,31.30
2022-11-25T10:00:38.662Z,31.20
2022-11-25T10:05:59.168Z,31.30
2022-11-25T10:11:21.913Z,31.30
2022-11-25T10:16:51.247Z,31.30
2022-11-25T10:21:53.808Z,31.30
2022-11-25T10:27:06.013Z,32.10
2022-11-25T10:32:23.612Z,31.40
2022-11-25T10:37:45.995Z,31.30
2022-11-25T10:42:48.388Z,31.10
2022-11-25T10:48:17.851Z,30.90
2022-11-25T10:53:25.904Z,30.90
2022-11-25T10:58:35.102Z,31.40
2022-11-25T11:03:37.417Z,30.80
2022-11-25T11:08:40.870Z,31.40
2022-11-25T11:13:44.553Z,31.10
2022-11-25T11:18:47.048Z,30.60
2022-11-25T11:23:51.950Z,30.80
2022-11-25T11:29:01.872Z,30.80
2022-11-25T11:34:30.326Z,30.90
2022-11-25T11:40:16.460Z,30.90
2022-11-25T11:45:24.326Z,30.80
2022-11-25T11:50:36.971Z,31.40
2022-11-25T11:56:34.161Z,30.40
2022-11-25T12:01:48.451Z,30.40
2022-11-25T12:07:17.891Z,30.50
2022-11-25T12:12:25.792Z,30.80
2022-11-25T12:17:35.772Z,31.00
2022-11-25T12:22:59.516Z,31.00
2022-11-25T12:28:04.964Z,30.90
2022-11-25T12:33:20.184Z,31.70
2022-11-25T12:38:54.784Z,31.20
2022-11-25T12:44:21.841Z,30.50
2022-11-25T12:49:35.126Z,30.60
2022-11-25T12:54:55.571Z,30.90
2022-11-25T13:05:51.011Z,30.20
2022-11-25T13:11:29.007Z,29.80
2022-11-25T13:16:32.478Z,29.20
2022-11-25T13:21:35.027Z,29.00
2022-11-25T13:26:45.853Z,28.40
2022-11-25T13:32:24.181Z,27.60
2022-11-25T13:37:37.870Z,26.70
2022-11-25T13:42:44.625Z,25.50
2022-11-25T13:47:49.258Z,25.90
2022-11-25T13:53:03.687Z,26.10
2022-11-25T13:58:29.427Z,26.10
2022-11-25T14:03:31.523Z,25.60
2022-11-25T14:08:43.340Z,25.90
2022-11-25T14:14:15.981Z,25.40
2022-11-25T14:24:52.365Z,25.10
2022-11-25T14:30:00.828Z,25.00
2022-11-25T14:35:13.415Z,24.40
2022-11-25T14:40:18.681Z,24.70
2022-11-25T14:45:35.226Z,24.60
2022-11-25T14:50:39.068Z,24.50
2022-11-25T14:55:41.763Z,24.40
2022-11-25T15:00:53.093Z,24.50
2022-11-25T15:05:57.719Z,24.30
2022-11-25T15:11:02.280Z,24.30
2022-11-25T15:16:07.125Z,24.40
2022-11-25T15:21:14.853Z,24.40
2022-11-25T15:26:21.413Z,24.10
2022-11-25T15:31:31.184Z,24.50
2022-11-25T15:36:33.479Z,23.80
2022-11-25T15:41:36.850Z,24.50
2022-11-25T15:46:38.889Z,24.00
2022-11-25T15:51:44.505Z,24.00
2022-11-25T15:56:50.089Z,24.30
2022-11-25T16:01:52.261Z,24.70
2022-11-25T16:06:56.476Z,24.60
2022-11-25T16:12:06.535Z,24.60
2022-11-25T16:17:11.987Z,24.70
2022-11-25T16:22:16.727Z,24.80
2022-11-25T16:27:25.607Z,24.90
2022-11-25T16:32:30.700Z,24.90
2022-11-25T16:37:32.824Z,25.00
2022-11-25T16:42:34.886Z,24.90
2022-11-25T16:47:36.960Z,24.90
2022-11-25T16:52:39.048Z,24.90
2022-11-25T16:57:42.445Z,25.00
2022-11-25T17:07:50.254Z,24.80
2022-11-25T17:12:52.406Z,25.60
2022-11-25T17:17:54.599Z,25.70
2022-11-25T17:22:57.932Z,25.20
2022-11-25T17:28:00.659Z,25.30
2022-11-25T17:33:04.442Z,25.40
2022-11-25T17:38:16.785Z,25.50
2022-11-25T17:43:20.515Z,25.60
2022-11-25T17:48:22.569Z,25.90
2022-11-25T17:53:24.662Z,26.60
2022-11-25T17:58:26.735Z,26.70
2022-11-25T18:03:28.746Z,26.80
2022-11-25T18:08:30.762Z,26.90
2022-11-25T18:13:39.110Z,26.90
2022-11-25T18:18:41.264Z,27.00
2022-11-25T18:23:43.771Z,27.20
2022-11-25T18:28:45.922Z,27.70
2022-11-25T18:33:48.032Z,27.10
2022-11-25T18:38:51.364Z,26.80
2022-11-25T18:43:53.624Z,26.70
2022-11-25T18:48:56.369Z,26.70
2022-11-25T18:53:58.332Z,26.60
2022-11-25T18:59:01.981Z,26.50
2022-11-25T19:04:04.320Z,26.50
2022-11-25T19:09:06.712Z,27.00
2022-11-25T19:14:17.742Z,26.90
2022-11-25T19:19:19.929Z,26.30
2022-11-25T19:24:22.046Z,26.40
2022-11-25T19:29:38.799Z,26.20
2022-11-25T19:34:47.819Z,26.70
2022-11-25T19:39:51.477Z,26.50
2022-11-25T19:44:53.833Z,26.50
2022-11-25T19:49:59.001Z,26.00
2022-11-25T19:55:21.288Z,26.00
2022-11-25T20:00:24.827Z,26.00
2022-11-25T20:05:34.923Z,25.90
2022-11-25T20:10:37.448Z,25.90
2022-11-25T20:15:41.086Z,25.60
2022-11-25T20:20:44.428Z,25.80
2022-11-25T20:25:48.995Z,25.80
2022-11-25T20:30:52.603Z,26.30
2022-11-25T20:36:07.289Z,25.70
2022-11-25T20:41:12.010Z,25.90
2022-11-25T20:46:21.249Z,25.80
2022-11-25T20:51:24.823Z,25.90
2022-11-25T20:56:28.289Z,25.80
2022-11-25T21:01:30.396Z,25.80
2022-11-25T21:06:40.627Z,25.70
2022-11-25T21:11:43.095Z,25.80
2022-11-25T21:16:46.434Z,25.70
2022-11-25T21:21:50.498Z,25.70
2022-11-25T21:26:54.073Z,25.70
2022-11-25T21:31:56.190Z,25.70
2022-11-25T21:36:58.839Z,25.80
2022-11-25T21:42:03.088Z,25.70
2022-11-25T21:47:16.590Z,25.60
2022-11-25T21:52:18.970Z,26.00
2022-11-25T21:57:27.133Z,25.90
2022-11-25T22:02:30.328Z,26.10
2022-11-25T22:07:32.439Z,26.20
2022-11-25T22:12:39.767Z,26.00
2022-11-25T22:17:44.619Z,26.00
2022-11-25T22:22:46.687Z,25.80
2022-11-25T22:27:49.383Z,26.00
2022-11-25T22:32:57.893Z,26.30
2022-11-25T22:38:00.465Z,26.30
2022-11-25T22:43:02.609Z,26.90
2022-11-25T22:48:06.345Z,26.60
2022-11-25T22:53:17.542Z,27.40
2022-11-25T22:58:19.665Z,26.40
2022-11-25T23:03:30.506Z,26.40
2022-11-25T23:08:32.525Z,27.70
2022-11-25T23:18:40.211Z,28.60
2022-11-25T23:23:42.281Z,28.30
2022-11-25T23:28:44.446Z,28.40
2022-11-25T23:33:49.300Z,28.90
2022-11-25T23:38:59.820Z,29.70
2022-11-25T23:44:12.901Z,29.20
2022-11-25T23:49:20.385Z,29.00
2022-11-25T23:54:28.025Z,28.90
2022-11-25T23:59:31.245Z,29.50
